Time;durP1;ratioP1;P1;durP2;ratioP2;P2;SDS_P1;SDS_P2;PMS_P1;PMS_P2;Temp;Humidity;BMP_temperature;BMP_pressure;BME280_temperature;BME280_humidity;BME280_pressure;Samples;Min_cycle;Max_cycle;Signal;HPM_P1;HPM_P2
2021/05/14 00:00:31;;;;;;;5.40;4.97;;;;;;;10.64;85.52;94545.44;5010068;28;20087;-74
2021/05/14 00:02:57;;;;;;;5.95;5.35;;;;;;;10.45;85.27;94529.09;5009896;28;20125;-74
2021/05/14 00:05:23;;;;;;;9.77;5.78;;;;;;;10.96;86.00;94584.00;5011942;28;20113;-74
2021/05/14 00:07:49;;;;;;;6.15;5.55;;;;;;;10.37;85.09;94496.09;5011492;28;20045;-74
2021/05/14 00:10:16;;;;;;;8.68;5.38;;;;;;;10.44;85.31;94506.25;5009803;28;20049;-72
2021/05/14 00:12:42;;;;;;;6.10;5.30;;;;;;;10.91;85.00;94582.28;5010287;28;20045;-73
2021/05/14 00:15:08;;;;;;;5.57;5.07;;;;;;;10.35;83.93;94524.91;5009983;28;20220;-72
2021/05/14 00:17:34;;;;;;;10.60;5.18;;;;;;;10.58;83.40;94579.41;5013180;28;20026;-73
2021/05/14 00:20:00;;;;;;;6.88;5.63;;;;;;;10.71;84.40;94588.31;5010963;28;20045;-73
2021/05/14 00:22:26;;;;;;;6.15;4.63;;;;;;;10.31;84.86;94522.09;5009035;28;20125;-72
2021/05/14 00:24:51;;;;;;;6.53;5.35;;;;;;;10.06;85.17;94485.69;5009768;28;20192;-73
2021/05/14 00:27:17;;;;;;;7.55;4.70;;;;;;;10.47;84.52;94556.91;5010959;28;20052;-73
2021/05/14 00:29:42;;;;;;;4.32;3.92;;;;;;;10.28;84.53;94517.38;5011661;28;20084;-73
2021/05/14 00:32:08;;;;;;;5.03;4.53;;;;;;;10.52;84.31;94570.03;5010612;28;20054;-74
2021/05/14 00:34:36;;;;;;;6.55;5.18;;;;;;;10.51;84.22;94563.16;5009748;28;20034;-72
2021/05/14 00:37:02;;;;;;;6.15;3.92;;;;;;;10.21;84.14;94522.38;5011077;28;20030;-73
2021/05/14 00:39:27;;;;;;;5.10;3.70;;;;;;;10.21;83.61;94527.72;5010603;28;20574;-72
2021/05/14 00:41:52;;;;;;;3.75;3.45;;;;;;;10.01;83.16;94507.09;5012892;28;20026;-73
2021/05/14 00:44:38;;;;;;;4.53;3.53;;;;;;;9.93;83.43;94505.22;5010499;28;20448;-73
2021/05/14 00:47:07;;;;;;;5.55;4.03;;;;;;;9.73;83.17;94466.84;5009338;28;20034;-74
2021/05/14 00:49:33;;;;;;;4.68;4.28;;;;;;;10.10;83.11;94537.09;5008835;28;20046;-73
2021/05/14 00:51:59;;;;;;;4.57;3.75;;;;;;;10.31;83.27;94575.25;5007855;28;20038;-74
2021/05/14 00:54:26;;;;;;;4.10;3.70;;;;;;;9.83;82.56;94519.66;5010083;28;20097;-74
2021/05/14 00:56:52;;;;;;;4.72;3.88;;;;;;;9.75;82.82;94510.56;5012642;28;20030;-73
2021/05/14 00:59:17;;;;;;;4.68;3.30;;;;;;;9.47;82.42;94490.72;5009229;28;20049;-73
2021/05/14 01:01:42;;;;;;;4.63;3.88;;;;;;;9.87;82.90;94539.94;5009098;28;20124;-73
2021/05/14 01:04:08;;;;;;;4.50;3.78;;;;;;;9.77;82.65;94539.47;5008723;28;20038;-73
2021/05/14 01:06:33;;;;;;;4.20;3.28;;;;;;;9.77;82.40;94542.13;5010390;28;20034;-73
2021/05/14 01:09:01;;;;;;;5.70;3.60;;;;;;;9.27;82.35;94474.34;5009115;28;20369;-73
2021/05/14 01:11:26;;;;;;;6.57;3.03;;;;;;;9.90;82.44;94587.13;5012502;28;20064;-72
2021/05/14 01:13:53;;;;;;;4.20;3.17;;;;;;;9.63;82.57;94550.25;5009754;28;20745;-73
2021/05/14 01:16:19;;;;;;;3.45;2.92;;;;;;;9.25;82.67;94512.88;5010068;28;20513;-73
2021/05/14 01:18:44;;;;;;;3.40;3.10;;;;;;;9.06;82.33;94476.81;5008691;28;20038;-73
2021/05/14 01:21:09;;;;;;;5.03;3.40;;;;;;;9.46;82.81;94551.00;5009652;28;20034;-73
2021/05/14 01:23:35;;;;;;;4.65;3.30;;;;;;;9.36;83.02;94530.84;5009734;28;20475;-74
2021/05/14 01:26:01;;;;;;;5.57;2.63;;;;;;;9.14;83.19;94493.84;5010046;28;20042;-74
2021/05/14 01:28:27;;;;;;;3.30;3.00;;;;;;;8.86;82.97;94461.50;5009860;28;20483;-72
2021/05/14 01:30:53;;;;;;;6.32;2.95;;;;;;;9.74;82.70;94572.75;5007773;28;20045;-73
2021/05/14 01:33:19;;;;;;;3.05;2.80;;;;;;;9.33;82.08;94526.19;5009296;28;20042;-72
2021/05/14 01:35:45;;;;;;;4.25;2.63;;;;;;;9.30;82.06;94508.22;5011955;28;20037;-73
2021/05/14 01:38:11;;;;;;;5.00;2.90;;;;;;;9.09;81.44;94478.84;5009664;28;20045;-74
2021/05/14 01:40:37;;;;;;;2.78;2.58;;;;;;;9.28;81.05;94513.06;5008461;28;20045;-73
2021/05/14 01:43:03;;;;;;;3.40;2.38;;;;;;;9.56;80.78;94539.31;5008042;28;20045;-73
2021/05/14 01:45:29;;;;;;;3.30;2.70;;;;;;;9.73;81.01;94576.50;5007144;28;20454;-73
2021/05/14 01:47:55;;;;;;;4.18;3.30;;;;;;;9.51;81.12;94574.75;5011726;28;20022;-68
2021/05/14 01:50:20;;;;;;;3.78;3.13;;;;;;;8.89;80.87;94484.72;5025340;28;20408;-73
2021/05/14 01:52:46;;;;;;;3.42;3.00;;;;;;;8.92;81.34;94517.81;5007512;28;20121;-74
2021/05/14 01:55:12;;;;;;;2.90;2.58;;;;;;;8.69;81.57;94509.94;5009670;28;20049;-73
2021/05/14 01:57:38;;;;;;;4.72;2.35;;;;;;;8.58;81.53;94528.00;5009464;28;20053;-74
2021/05/14 02:00:08;;;;;;;4.18;2.65;;;;;;;8.68;81.41;94547.38;5007629;28;20041;-74
2021/05/14 02:02:34;;;;;;;2.72;2.20;;;;;;;8.18;82.33;94490.03;5011153;28;20022;-75
2021/05/14 02:04:59;;;;;;;3.80;1.63;;;;;;;7.92;81.65;94492.53;5008077;28;20045;-72
2021/05/14 02:07:25;;;;;;;1.73;1.50;;;;;;;8.10;82.46;94545.63;5009306;28;20038;-74
2021/05/14 02:09:52;;;;;;;3.00;1.85;;;;;;;8.13;83.65;94571.50;5007849;28;20048;-73
2021/05/14 02:12:18;;;;;;;3.38;2.08;;;;;;;7.76;83.08;94496.66;5007855;28;20042;-73
2021/05/14 02:14:43;;;;;;;2.58;2.25;;;;;;;8.20;83.04;94556.78;5010220;28;20526;-75
2021/05/14 02:17:09;;;;;;;2.95;2.45;;;;;;;8.31;83.34;94581.91;5008344;28;20046;-74
2021/05/14 02:19:35;;;;;;;9.98;2.42;;;;;;;8.05;83.00;94551.84;5008932;28;20038;-73
2021/05/14 02:22:01;;;;;;;3.90;2.20;;;;;;;7.90;82.92;94545.03;5008816;28;20041;-73
2021/05/14 02:24:27;;;;;;;2.80;2.00;;;;;;;7.82;83.05;94551.03;5007238;28;20046;-74
2021/05/14 02:26:53;;;;;;;2.40;2.05;;;;;;;7.32;83.67;94494.75;5010043;28;20033;-72
2021/05/14 02:29:18;;;;;;;4.85;1.50;;;;;;;7.92;84.18;94598.47;5006508;28;20079;-74
2021/05/14 02:31:43;;;;;;;2.85;2.28;;;;;;;7.73;83.75;94545.69;5006710;28;20105;-72
2021/05/14 02:34:09;;;;;;;2.58;2.25;;;;;;;7.68;84.16;94567.00;5007271;28;20440;-73
2021/05/14 02:36:34;;;;;;;4.25;2.80;;;;;;;7.91;83.96;94585.53;5007315;28;20060;-72
2021/05/14 02:39:00;;;;;;;3.83;2.97;;;;;;;7.42;84.14;94519.13;5007510;28;20029;-74
2021/05/14 02:41:25;;;;;;;2.78;2.38;;;;;;;7.56;84.18;94556.91;5009872;28;20026;-74
2021/05/14 02:43:51;;;;;;;3.40;2.70;;;;;;;7.64;84.35;94558.06;5007042;28;20573;-74
2021/05/14 02:46:16;;;;;;;2.83;2.45;;;;;;;7.45;84.28;94538.91;5007295;28;20041;-73
2021/05/14 02:48:41;;;;;;;3.00;2.50;;;;;;;7.68;84.28;94577.59;5007378;28;20479;-77
2021/05/14 02:51:07;;;;;;;5.63;2.65;;;;;;;7.19;84.49;94488.44;5008086;28;20021;-74
2021/05/14 02:53:33;;;;;;;2.92;2.60;;;;;;;7.65;83.75;94553.56;5009383;28;20463;-74
2021/05/14 02:55:58;;;;;;;4.25;2.92;;;;;;;7.26;83.95;94492.22;5007750;28;20038;-74
2021/05/14 02:58:23;;;;;;;4.78;2.60;;;;;;;7.28;83.99;94498.00;5007156;28;20037;-75
2021/05/14 03:00:49;;;;;;;5.80;2.97;;;;;;;7.87;83.55;94579.28;5008807;28;20040;-74
2021/05/14 03:03:14;;;;;;;3.22;2.30;;;;;;;7.30;83.59;94501.13;5007251;28;20057;-73
2021/05/14 03:05:40;;;;;;;4.97;1.92;;;;;;;7.38;84.16;94551.78;5010769;28;20022;-73
2021/05/14 03:08:05;;;;;;;2.65;2.40;;;;;;;7.34;84.19;94516.41;5008489;28;20066;-74
2021/05/14 03:10:31;;;;;;;4.78;2.60;;;;;;;7.14;83.61;94515.75;5007427;28;20077;-74
2021/05/14 03:12:56;;;;;;;2.05;1.67;;;;;;;7.03;84.71;94525.78;5006758;28;20038;-74
2021/05/14 03:15:22;;;;;;;2.38;1.52;;;;;;;7.11;85.95;94585.09;5007078;28;20547;-74
2021/05/14 03:17:47;;;;;;;3.88;1.98;;;;;;;7.11;84.70;94528.78;5009930;28;20112;-74
2021/05/14 03:20:13;;;;;;;2.78;1.95;;;;;;;7.29;83.97;94556.97;5006210;28;20045;-74
2021/05/14 03:22:39;;;;;;;2.17;1.98;;;;;;;6.91;83.74;94514.13;5008148;28;20176;-74
2021/05/14 03:25:08;;;;;;;3.63;1.50;;;;;;;7.14;84.02;94562.59;5006829;28;20376;-75
2021/05/14 03:27:33;;;;;;;2.67;1.73;;;;;;;6.94;83.56;94530.19;5008423;28;20120;-75
2021/05/14 03:29:59;;;;;;;3.13;1.85;;;;;;;7.06;84.68;94553.47;5008293;28;20129;-75
2021/05/14 03:32:25;;;;;;;3.75;1.58;;;;;;;7.16;84.74;94595.59;5010018;28;20468;-71
2021/05/14 03:34:50;;;;;;;2.30;1.80;;;;;;;6.86;84.71;94546.75;5006899;28;20139;-75
2021/05/14 03:37:16;;;;;;;3.83;2.13;;;;;;;7.13;84.95;94584.84;5008481;28;20061;-72
2021/05/14 03:39:47;;;;;;;3.40;1.88;;;;;;;7.03;84.18;94554.09;5007438;28;20046;-76
2021/05/14 03:44:39;;;;;;;3.20;1.80;;;;;;;7.04;85.30;94579.44;5010521;28;20041;-75
2021/05/14 03:47:05;;;;;;;4.68;1.77;;;;;;;6.05;85.02;94456.59;5008920;28;20034;-74
2021/05/14 03:49:30;;;;;;;1.75;1.52;;;;;;;6.98;84.17;94583.25;5010296;28;20042;-75
2021/05/14 03:51:56;;;;;;;2.75;1.80;;;;;;;7.18;83.86;94582.88;5011861;28;20400;-75
2021/05/14 03:54:22;;;;;;;2.40;1.63;;;;;;;7.10;83.39;94551.81;5009683;28;20239;-74
2021/05/14 03:56:50;;;;;;;1.70;1.05;;;;;;;6.60;83.26;94516.59;5014011;28;20033;-75
2021/05/14 03:59:16;;;;;;;2.35;1.35;;;;;;;7.19;82.82;94557.97;5011436;28;20128;-75
2021/05/14 04:01:41;;;;;;;1.40;1.30;;;;;;;7.17;82.20;94546.91;5011771;28;20165;-74
2021/05/14 04:04:07;;;;;;;2.55;1.60;;;;;;;7.26;82.23;94558.34;5010612;28;20042;-74
2021/05/14 04:06:32;;;;;;;1.70;1.60;;;;;;;7.42;81.83;94573.91;5010236;28;20046;-73
2021/05/14 04:08:58;;;;;;;1.77;1.20;;;;;;;7.02;81.18;94534.00;5010015;28;20026;-73
2021/05/14 04:16:35;;;;;;;1.92;1.70;;;;;;;7.49;80.55;94545.97;5010758;28;20037;-72
2021/05/14 04:19:02;;;;;;;2.67;1.30;;;;;;;7.53;80.88;94549.59;5010609;28;20067;-73
2021/05/14 04:21:27;;;;;;;1.42;1.10;;;;;;;7.42;80.99;94491.88;5008788;28;20103;-72
2021/05/14 04:23:53;;;;;;;1.77;1.27;;;;;;;7.97;80.80;94534.78;5012797;28;20109;-73
2021/05/14 04:26:18;;;;;;;1.58;1.17;;;;;;;8.68;80.62;94595.09;5009441;28;20205;-72
2021/05/14 04:28:44;;;;;;;3.22;1.30;;;;;;;8.84;80.16;94573.16;5011466;28;20041;-73
2021/05/14 04:31:09;;;;;;;4.50;1.10;;;;;;;8.88;79.23;94533.56;5010478;28;20108;-73
2021/05/14 04:33:34;;;;;;;3.33;1.27;;;;;;;9.22;79.15;94545.38;5010645;28;20030;-73
2021/05/14 04:36:00;;;;;;;1.25;0.85;;;;;;;9.45;78.38;94532.75;5010228;28;20121;-73
2021/05/14 04:38:25;;;;;;;0.60;0.60;;;;;;;9.68;75.17;94581.97;5013589;28;20022;-73
2021/05/14 04:40:51;;;;;;;1.33;0.80;;;;;;;9.36;73.92;94583.94;5011169;28;20034;-73
2021/05/14 04:43:16;;;;;;;1.45;0.63;;;;;;;9.86;74.17;94561.50;5009401;28;20038;-73
2021/05/14 04:45:41;;;;;;;1.70;0.80;;;;;;;10.12;73.83;94558.81;5011066;28;20049;-73
2021/05/14 04:48:10;;;;;;;1.48;1.13;;;;;;;10.45;73.34;94574.31;5010966;28;20032;-73
2021/05/14 04:50:37;;;;;;;1.13;0.88;;;;;;;10.62;72.20;94574.25;5012737;28;20061;-73
2021/05/14 04:53:11;;;;;;;1.35;0.80;;;;;;;10.53;68.72;94563.63;5009458;28;20173;-73
2021/05/14 04:55:37;;;;;;;2.45;1.05;;;;;;;10.87;70.78;94570.72;5010316;28;20092;-73
2021/05/14 04:58:03;;;;;;;1.20;0.90;;;;;;;11.00;70.67;94566.28;5010077;28;20049;-74
2021/05/14 05:00:28;;;;;;;2.67;0.80;;;;;;;10.98;70.31;94546.41;5009621;28;20042;-73
2021/05/14 05:02:54;;;;;;;0.80;0.65;;;;;;;11.13;67.59;94578.59;5010735;28;20057;-74
2021/05/14 05:05:20;;;;;;;1.25;0.73;;;;;;;11.05;66.99;94579.41;5010578;28;20038;-73
2021/05/14 05:07:46;;;;;;;2.47;0.70;;;;;;;10.25;69.03;94568.53;5010420;28;20408;-72
2021/05/14 05:10:12;;;;;;;4.60;0.75;;;;;;;9.99;67.77;94565.09;5009001;28;20038;-75
2021/05/14 05:12:37;;;;;;;1.75;0.60;;;;;;;10.75;68.19;94573.28;5007797;28;20045;-73
2021/05/14 05:15:03;;;;;;;0.60;0.60;;;;;;;10.00;67.56;94540.09;5010215;28;20017;-73
2021/05/14 05:17:29;;;;;;;1.92;0.57;;;;;;;10.57;67.43;94539.84;5012228;28;20077;-72
2021/05/14 05:19:55;;;;;;;1.85;0.60;;;;;;;10.80;67.13;94580.28;5009898;28;20046;-73
2021/05/14 05:22:21;;;;;;;2.28;0.70;;;;;;;10.69;66.67;94558.56;5008140;28;20038;-73
2021/05/14 05:24:46;;;;;;;2.03;0.70;;;;;;;10.38;65.61;94550.84;5009745;28;20129;-74
2021/05/14 05:27:13;;;;;;;0.65;0.65;;;;;;;10.43;66.79;94541.91;5009945;28;20053;-75
2021/05/14 05:29:38;;;;;;;1.45;0.70;;;;;;;10.67;66.10;94523.53;5010555;28;20438;-73
2021/05/14 05:32:04;;;;;;;1.15;0.70;;;;;;;10.63;65.83;94486.16;5009554;28;20041;-74
2021/05/14 05:34:30;;;;;;;3.15;0.80;;;;;;;10.34;64.81;94478.16;5009309;28;20192;-73
2021/05/14 05:36:56;;;;;;;0.60;0.60;;;;;;;11.11;65.67;94554.19;5008684;28;20045;-74
2021/05/14 05:39:22;;;;;;;1.38;0.85;;;;;;;11.29;66.17;94554.84;5009710;28;20443;-73
2021/05/14 05:41:47;;;;;;;2.03;0.50;;;;;;;11.03;64.21;94586.16;5011752;28;20022;-74
2021/05/14 05:44:13;;;;;;;2.05;0.70;;;;;;;10.75;66.06;94575.13;5007956;28;20038;-74
2021/05/14 05:46:38;;;;;;;1.35;0.50;;;;;;;10.97;64.90;94585.56;5009401;28;20128;-74
2021/05/14 05:49:04;;;;;;;0.88;0.65;;;;;;;11.13;65.28;94559.97;5009101;28;20566;-74
2021/05/14 05:51:29;;;;;;;1.55;0.80;;;;;;;10.94;64.70;94540.94;5008597;28;20034;-76
2021/05/14 05:53:55;;;;;;;1.40;0.90;;;;;;;11.23;63.04;94574.00;5010146;28;20149;-75
2021/05/14 05:56:20;;;;;;;3.10;0.80;;;;;;;11.39;65.16;94597.09;5012388;28;20038;-77
2021/05/14 05:58:46;;;;;;;1.23;0.77;;;;;;;11.20;63.16;94572.75;5010350;28;20499;-76
2021/05/14 06:01:12;;;;;;;2.45;0.98;;;;;;;11.56;64.90;94592.75;5008724;28;20034;-77
2021/05/14 06:03:38;;;;;;;1.17;1.00;;;;;;;11.67;65.17;94572.66;5008740;28;20036;-78
2021/05/14 06:06:04;;;;;;;2.28;0.75;;;;;;;11.61;64.44;94549.97;5009602;28;20375;-76
2021/05/14 06:08:29;;;;;;;0.93;0.57;;;;;;;11.82;63.40;94601.41;5012894;28;20018;-79
2021/05/14 06:10:55;;;;;;;1.15;0.70;;;;;;;11.43;64.29;94597.25;5009633;28;20483;-70
2021/05/14 06:13:21;;;;;;;1.48;0.60;;;;;;;10.72;65.57;94605.03;5009794;28;20057;-74
2021/05/14 06:15:47;;;;;;;0.88;0.60;;;;;;;11.07;64.38;94595.84;5007890;28;20038;-77
2021/05/14 06:18:15;;;;;;;1.65;0.70;;;;;;;11.40;64.94;94601.31;5007340;28;20099;-78
2021/05/14 06:20:45;;;;;;;1.20;0.52;;;;;;;11.31;65.07;94594.47;5011023;28;20454;-79
2021/05/14 06:23:11;;;;;;;0.57;0.57;;;;;;;10.50;64.77;94540.34;5010514;28;20037;-80
2021/05/14 06:25:38;;;;;;;0.93;0.73;;;;;;;11.43;63.85;94570.59;5008522;28;20112;-73
2021/05/14 06:28:04;;;;;;;2.80;0.50;;;;;;;11.52;64.64;94615.84;5007694;28;20042;-74
2021/05/14 06:30:29;;;;;;;1.52;0.70;;;;;;;11.64;64.37;94600.72;5009209;28;20042;-74
2021/05/14 06:32:54;;;;;;;1.05;0.55;;;;;;;11.82;64.22;94611.28;5010658;28;20049;-77
2021/05/14 06:35:21;;;;;;;1.02;0.90;;;;;;;11.60;64.36;94604.34;5008463;28;20124;-68
2021/05/14 06:37:46;;;;;;;0.95;0.45;;;;;;;11.17;63.69;94590.16;5009182;28;20042;-66
2021/05/14 06:40:12;;;;;;;1.27;0.50;;;;;;;11.85;62.93;94616.75;5008106;28;20056;-69
2021/05/14 06:42:38;;;;;;;1.20;0.60;;;;;;;11.53;62.54;94609.41;5007969;28;20168;-71
2021/05/14 06:45:04;;;;;;;2.65;0.85;;;;;;;12.31;62.04;94617.66;5008468;28;20116;-71
2021/05/14 06:47:30;;;;;;;1.27;0.82;;;;;;;12.18;61.01;94605.34;5009145;28;20045;-68
2021/05/14 06:49:57;;;;;;;1.40;0.60;;;;;;;12.48;61.52;94625.47;5008073;28;20076;-67
2021/05/14 06:52:22;;;;;;;1.98;0.70;;;;;;;12.90;59.97;94619.28;5007737;28;20069;-68
2021/05/14 06:54:47;;;;;;;1.02;0.47;;;;;;;12.84;58.56;94629.38;5008314;28;20483;-69
2021/05/14 06:57:13;;;;;;;0.80;0.47;;;;;;;12.67;59.48;94629.56;5008621;28;20022;-67
2021/05/14 06:59:38;;;;;;;4.10;0.70;;;;;;;12.72;60.01;94627.47;5010329;28;20507;-67
2021/05/14 07:02:04;;;;;;;0.98;0.52;;;;;;;12.65;59.27;94621.91;5006728;28;20156;-71
2021/05/14 07:04:29;;;;;;;2.28;0.60;;;;;;;13.07;58.68;94618.31;5006738;28;20045;-70
2021/05/14 07:06:55;;;;;;;1.85;0.60;;;;;;;13.49;56.05;94635.72;5008353;28;20041;-69
2021/05/14 07:09:20;;;;;;;1.42;0.50;;;;;;;13.20;55.38;94607.28;5006831;28;20030;-71
2021/05/14 07:11:45;;;;;;;1.08;0.60;;;;;;;13.34;55.11;94639.06;5010551;28;20030;-76
2021/05/14 07:14:11;;;;;;;0.63;0.43;;;;;;;13.87;55.11;94639.16;5006709;28;20125;-71
2021/05/14 07:16:36;;;;;;;2.20;0.50;;;;;;;14.54;54.68;94613.59;5008665;28;20034;-73
2021/05/14 07:19:02;;;;;;;0.73;0.38;;;;;;;13.59;53.71;94631.81;5008208;28;20084;-68
2021/05/14 07:21:27;;;;;;;0.60;0.30;;;;;;;13.52;53.78;94624.38;5006846;28;20124;-72
2021/05/14 07:23:53;;;;;;;1.38;0.30;;;;;;;14.24;53.85;94637.19;5012983;28;20034;-70
2021/05/14 07:26:18;;;;;;;1.05;0.40;;;;;;;13.84;52.55;94605.09;5012653;28;20038;-79
2021/05/14 07:28:44;;;;;;;1.48;0.40;;;;;;;14.31;53.76;94630.13;5013322;28;20033;-79
2021/05/14 07:31:09;;;;;;;2.80;0.47;;;;;;;14.90;53.67;94626.03;5013130;28;20455;-78
2021/05/14 07:33:37;;;;;;;1.23;0.65;;;;;;;15.03;52.40;94624.03;5013234;28;20072;-78
2021/05/14 07:36:03;;;;;;;6.97;0.73;;;;;;;14.35;52.43;94629.47;5013375;28;20556;-79
2021/05/14 07:38:29;;;;;;;1.58;0.50;;;;;;;14.25;52.44;94630.72;5014984;28;20036;-79
2021/05/14 07:40:54;;;;;;;0.77;0.40;;;;;;;15.14;51.20;94622.41;5013266;28;20137;-79
2021/05/14 07:43:20;;;;;;;1.40;0.40;;;;;;;15.50;51.07;94626.72;5011803;28;20383;-79
2021/05/14 07:45:45;;;;;;;1.42;0.47;;;;;;;15.66;51.14;94615.22;5013542;28;20045;-76
2021/05/14 07:48:22;;;;;;;2.38;0.40;;;;;;;15.01;50.29;94619.03;5013147;28;20026;-79
2021/05/14 07:50:49;;;;;;;0.75;0.43;;;;;;;13.97;53.83;94619.97;5015124;28;20038;-77
2021/05/14 07:53:17;;;;;;;0.98;0.50;;;;;;;14.24;52.82;94626.50;5004687;28;20044;-78
2021/05/14 07:55:43;;;;;;;1.73;0.47;;;;;;;14.06;52.80;94625.97;4982530;28;20089;-78
2021/05/14 07:58:08;;;;;;;1.13;0.73;;;;;;;13.25;54.78;94631.13;4983612;28;20042;-78
2021/05/14 08:00:34;;;;;;;1.08;0.60;;;;;;;13.94;51.84;94626.00;4993209;28;20500;-78
2021/05/14 08:03:00;;;;;;;0.60;0.43;;;;;;;13.85;53.59;94630.69;4993157;28;20097;-77
2021/05/14 08:05:25;;;;;;;0.68;0.30;;;;;;;13.59;52.65;94639.84;5005406;28;20172;-78
2021/05/14 08:07:59;;;;;;;1.05;0.50;;;;;;;14.30;51.24;94631.25;4981878;28;20035;-77
2021/05/14 08:10:25;;;;;;;3.00;0.60;;;;;;;14.54;51.41;94624.31;4979966;28;20047;-78
2021/05/14 08:12:50;;;;;;;0.55;0.32;;;;;;;14.26;50.82;94630.38;4985444;28;20056;-76
2021/05/14 08:15:16;;;;;;;1.85;0.50;;;;;;;13.88;52.17;94630.03;5010453;28;20103;-74
2021/05/14 08:17:41;;;;;;;0.95;0.30;;;;;;;13.58;52.71;94621.47;5013048;28;20041;-72
2021/05/14 08:20:09;;;;;;;0.98;0.60;;;;;;;13.54;53.20;94621.38;5011308;28;20579;-74
2021/05/14 08:22:34;;;;;;;1.08;0.65;;;;;;;14.11;52.90;94628.41;5011237;28;20042;-77
2021/05/14 08:24:59;;;;;;;0.80;0.40;;;;;;;14.10;51.07;94623.41;5011544;28;20443;-73
2021/05/14 08:27:25;;;;;;;1.25;0.40;;;;;;;13.65;51.93;94617.13;5011275;28;20038;-72
2021/05/14 08:29:50;;;;;;;1.20;0.70;;;;;;;13.47;53.61;94615.81;5012960;28;20117;-75
2021/05/14 08:32:15;;;;;;;1.08;0.55;;;;;;;13.60;52.95;94600.53;5010555;28;20469;-74
2021/05/14 08:34:41;;;;;;;1.00;0.38;;;;;;;14.17;52.30;94626.28;5011294;28;20034;-74
2021/05/14 08:37:06;;;;;;;2.47;0.50;;;;;;;14.19;50.93;94624.06;5011392;28;20061;-72
2021/05/14 08:39:31;;;;;;;1.00;0.40;;;;;;;14.55;51.57;94612.47;5010852;28;20487;-73
2021/05/14 08:42:01;;;;;;;0.55;0.35;;;;;;;13.44;51.99;94622.59;5010726;28;20072;-73
2021/05/14 08:44:27;;;;;;;0.95;0.60;;;;;;;13.62;53.15;94614.38;5012313;28;20056;-73
2021/05/14 08:46:52;;;;;;;0.60;0.50;;;;;;;13.71;53.45;94625.69;5010962;28;20464;-72
2021/05/14 08:49:37;;;;;;;3.15;0.85;;;;;;;13.89;52.73;94626.25;5011259;28;20046;-86
2021/05/14 08:52:04;;;;;;;0.73;0.40;;;;;;;13.75;52.30;94618.56;5012939;28;20526;-85
2021/05/14 08:54:30;;;;;;;2.00;0.50;;;;;;;14.46;52.70;94609.91;5014504;28;20080;-88
2021/05/14 08:56:56;;;;;;;0.98;0.30;;;;;;;14.53;48.26;94598.63;5011986;28;20464;-75
2021/05/14 08:59:21;;;;;;;1.25;0.45;;;;;;;13.84;49.58;94571.09;5013824;28;20076;-74
2021/05/14 09:01:49;;;;;;;0.30;0.30;;;;;;;15.08;49.25;94623.78;5011736;28;20042;-80
2021/05/14 09:04:16;;;;;;;0.88;0.30;;;;;;;16.06;48.73;94609.59;5009964;28;20506;-77
2021/05/14 09:06:43;;;;;;;0.63;0.40;;;;;;;14.60;49.84;94625.59;5011336;28;20064;-69
2021/05/14 09:09:10;;;;;;;1.08;0.40;;;;;;;14.02;50.47;94620.53;5010373;28;20026;-72
2021/05/14 09:11:38;;;;;;;1.48;0.40;;;;;;;14.92;49.87;94610.38;5012209;28;20463;-72
2021/05/14 09:14:06;;;;;;;1.33;0.30;;;;;;;14.89;46.92;94608.38;5009577;28;20046;-73
2021/05/14 09:16:43;;;;;;;1.60;0.40;;;;;;;15.02;47.14;94612.53;5010435;28;20587;-73
2021/05/14 09:19:10;;;;;;;1.00;0.40;;;;;;;15.56;46.06;94609.25;5009221;28;20100;-73
2021/05/14 09:21:36;;;;;;;2.25;0.43;;;;;;;16.40;45.82;94599.97;5010109;28;20044;-74
2021/05/14 09:24:02;;;;;;;1.00;0.32;;;;;;;15.86;44.55;94598.06;5009561;28;20177;-74
2021/05/14 09:26:29;;;;;;;1.05;0.40;;;;;;;14.89;45.93;94604.94;5010825;28;20133;-73
2021/05/14 09:28:55;;;;;;;0.98;0.45;;;;;;;14.64;47.88;94599.72;5008418;28;20034;-73
2021/05/14 09:31:22;;;;;;;1.75;0.40;;;;;;;15.22;46.87;94589.31;5008682;28;20057;-73
2021/05/14 09:33:59;;;;;;;0.70;0.40;;;;;;;15.84;45.46;94586.91;5008585;28;20041;-73
2021/05/14 09:36:29;;;;;;;1.35;0.45;;;;;;;15.08;45.95;94603.13;5010200;28;20527;-72
2021/05/14 09:38:55;;;;;;;0.70;0.30;;;;;;;15.52;45.63;94607.63;5010010;28;20033;-69
2021/05/14 09:41:37;;;;;;;1.23;0.30;;;;;;;15.59;44.36;94600.50;5012105;28;20026;-73
2021/05/14 09:44:04;;;;;;;1.27;1.17;;;;;;;15.68;44.17;94592.31;5007748;28;20038;-71
2021/05/14 09:46:29;;;;;;;0.88;0.50;;;;;;;15.22;45.02;94594.66;5009139;28;20430;-73
2021/05/14 09:49:03;;;;;;;1.65;0.50;;;;;;;16.22;43.26;94591.53;5008129;28;20034;-74
2021/05/14 09:51:29;;;;;;;0.82;0.30;;;;;;;16.40;42.05;94583.84;5009741;28;20050;-72
2021/05/14 09:53:55;;;;;;;0.65;0.30;;;;;;;16.94;41.40;94591.03;5007730;28;20049;-73
2021/05/14 09:56:32;;;;;;;1.05;0.30;;;;;;;17.47;40.81;94580.38;5011644;28;20419;-73
2021/05/14 09:59:00;;;;;;;0.70;0.32;;;;;;;16.63;40.48;94589.25;5009823;28;20149;-73
2021/05/14 10:01:27;;;;;;;0.70;0.35;;;;;;;16.39;41.63;94579.63;5007975;28;20062;-72
2021/05/14 10:03:55;;;;;;;2.67;0.40;;;;;;;16.19;41.59;94584.22;5009127;28;20070;-76
2021/05/14 10:06:22;;;;;;;0.77;0.30;;;;;;;16.81;40.70;94584.25;5008081;28;20045;-73
2021/05/14 10:08:51;;;;;;;0.60;0.35;;;;;;;17.20;42.05;94566.13;5010279;28;20030;-71
2021/05/14 10:11:21;;;;;;;1.33;0.75;;;;;;;17.67;39.99;94587.19;5009953;28;20511;-70
2021/05/14 10:13:48;;;;;;;0.57;0.43;;;;;;;17.80;40.90;94587.00;5009496;28;20521;-70
2021/05/14 10:16:14;;;;;;;0.98;0.40;;;;;;;18.51;39.88;94579.06;5009363;28;20042;-69
2021/05/14 10:18:48;;;;;;;1.25;0.30;;;;;;;18.86;38.95;94584.09;5009289;28;20038;-70
2021/05/14 10:21:14;;;;;;;0.52;0.45;;;;;;;18.38;39.02;94578.56;5009217;28;20051;-68
2021/05/14 10:23:44;;;;;;;1.17;0.52;;;;;;;17.53;40.13;94580.84;5010629;28;20056;-69
2021/05/14 10:26:11;;;;;;;0.60;0.47;;;;;;;17.80;38.45;94590.47;5009139;28;20117;-69
2021/05/14 10:28:44;;;;;;;2.75;0.35;;;;;;;17.03;39.76;94539.72;5008750;28;20558;-66
2021/05/14 10:31:14;;;;;;;0.38;0.20;;;;;;;17.24;40.67;94590.34;5008800;28;20049;-66
2021/05/14 10:33:53;;;;;;;2.72;0.40;;;;;;;17.66;39.69;94584.88;5008544;28;20068;-67
2021/05/14 10:36:22;;;;;;;0.88;0.35;;;;;;;18.94;38.14;94580.34;5008322;28;20045;-66
2021/05/14 10:39:08;;;;;;;2.17;0.30;;;;;;;18.47;37.44;94525.16;5009502;28;20116;-66
2021/05/14 10:41:49;;;;;;;1.98;0.40;;;;;;;19.33;37.12;94574.50;5009461;28;20038;-66
2021/05/14 10:44:15;;;;;;;0.45;0.35;;;;;;;19.80;36.60;94570.22;5007975;28;20132;-67
2021/05/14 10:46:41;;;;;;;0.60;0.40;;;;;;;19.07;36.07;94519.59;5008669;28;20137;-67
2021/05/14 10:49:11;;;;;;;0.45;0.40;;;;;;;18.59;37.47;94567.25;5008224;28;20136;-67
2021/05/14 10:51:46;;;;;;;0.45;0.40;;;;;;;18.87;36.69;94581.03;5008443;28;20095;-66
2021/05/14 10:54:43;;;;;;;0.47;0.20;;;;;;;19.41;36.63;94579.59;5008334;28;20022;-66
2021/05/14 10:57:40;;;;;;;1.77;0.35;;;;;;;18.02;38.18;94585.41;5009256;28;20555;-66
2021/05/14 11:00:23;;;;;;;0.30;0.25;;;;;;;17.67;40.50;94587.19;5011066;28;20486;-66
2021/05/14 11:03:14;;;;;;;0.40;0.40;;;;;;;17.40;39.06;94586.41;5013952;28;20022;-67
2021/05/14 11:05:41;;;;;;;0.70;0.35;;;;;;;19.15;37.06;94569.75;5012802;28;20056;-70
2021/05/14 11:08:11;;;;;;;0.90;0.40;;;;;;;20.06;35.34;94566.53;5012772;28;20040;-70
2021/05/14 11:10:38;;;;;;;1.85;0.50;;;;;;;21.03;34.46;94557.59;5012165;28;20217;-70
2021/05/14 11:13:35;;;;;;;1.75;0.47;;;;;;;18.47;36.71;94580.94;5012218;28;20042;-75
2021/05/14 11:16:35;;;;;;;0.63;0.32;;;;;;;18.70;36.57;94570.84;5012956;28;20068;-71
2021/05/14 11:19:10;;;;;;;0.57;0.30;;;;;;;17.90;39.18;94583.69;5011940;28;20099;-70
2021/05/14 11:22:09;;;;;;;1.20;0.47;;;;;;;18.29;38.67;94578.06;5011879;28;20442;-70
2021/05/14 11:24:38;;;;;;;0.63;0.40;;;;;;;18.43;38.19;94562.84;5011826;28;20038;-71
2021/05/14 11:27:05;;;;;;;1.33;0.50;;;;;;;17.73;39.56;94589.59;5012081;28;20120;-70
2021/05/14 11:29:32;;;;;;;0.50;0.40;;;;;;;16.78;42.25;94577.69;5013844;28;20255;-70
2021/05/14 11:32:13;;;;;;;1.70;0.60;;;;;;;17.09;42.03;94573.97;5012408;28;20037;-71
2021/05/14 11:35:09;;;;;;;0.95;0.30;;;;;;;16.25;42.75;94585.47;5012314;28;20034;-71
2021/05/14 11:37:40;;;;;;;0.73;0.30;;;;;;;17.10;39.12;94589.00;5011785;28;20041;-70
2021/05/14 11:40:26;;;;;;;0.50;0.30;;;;;;;17.73;38.25;94585.00;5012240;28;20034;-70
2021/05/14 11:42:55;;;;;;;1.60;0.50;;;;;;;17.78;39.46;94582.00;5011408;28;20574;-70
2021/05/14 11:45:32;;;;;;;1.58;0.32;;;;;;;17.94;39.10;94584.53;5012171;28;20044;-71